ADDS METAR Data INFO
IDs: Format: Raw Decoded Include TAF

Data at: 2313 UTC 15 Jul 2018

KMWO 152255Z AUTO 27009KT 10SM OVC120 30/23 A2998 RMK AO2 T03050227
KMWO 152235Z AUTO 23006KT 10SM OVC120 30/22 A2999 RMK AO2 T03030224
KMWO 152215Z AUTO 26008KT 10SM BKN120 30/22 A2999 RMK AO2 T03030218
KMWO 152155Z AUTO 24009KT 10SM SCT120 30/22 A2999 RMK AO2 T03040215
KMWO 152135Z AUTO 23009KT 10SM CLR 30/22 A2999 RMK AO2 T03040218
KMWO 152115Z AUTO 24009KT 10SM CLR 31/21 A2999 RMK AO2 T03080214
KMWO 152055Z AUTO 23007KT 10SM BKN120 32/22 A2999 RMK AO2 T03160216
KMWO 152035Z AUTO 22008KT 10SM CLR 32/22 A2999 RMK AO2 T03180216
KMWO 152015Z AUTO 19011KT 10SM SCT120 32/21 A3000 RMK AO2 T03200213
KMWO 151955Z AUTO 21009KT 10SM CLR 32/21 A3001 RMK AO2 T03180214
KMWO 151935Z AUTO 24008KT 10SM CLR 33/22 A3001 RMK AO2 T03270215
KMWO 151915Z AUTO 22008KT 190V260 10SM BKN120 32/21 A3002 RMK AO2 T03160212
KMWO 151855Z AUTO 25010KT 10SM SCT041 SCT055 SCT110 31/22 A3003 RMK AO2 T03140221
KMWO 151835Z AUTO 21006KT 10SM SCT041 32/22 A3003 RMK AO2 T03180218
KMWO 151815Z AUTO 23010KT 10SM SCT042 31/22 A3003 RMK AO2 T03140217
KMWO 151755Z AUTO 18008KT 10SM CLR 32/21 A3003 RMK AO2 T03220207 10328 20224
KMWO 151735Z AUTO 17005KT 10SM CLR 31/22 A3003 RMK AO2 T03120215
KMWO 151715Z AUTO 14005KT 10SM CLR 31/21 A3002 RMK AO2 T03070214
KMWO 151655Z AUTO 19003KT 10SM CLR 30/21 A3002 RMK AO2 T03010210
KMWO 151635Z AUTO 11004KT 7SM CLR 30/21 A3002 RMK AO2 T03030209
KMWO 151615Z AUTO 10004KT 10SM CLR 30/21 A3002 RMK AO2 T03010207
KMWO 151555Z AUTO 00000KT 10SM CLR 29/21 A3002 RMK AO2 T02940212
KMWO 151535Z AUTO 17003KT 7SM CLR 29/21 A3002 RMK AO2 T02890213
KMWO 151515Z AUTO 00000KT 10SM CLR 28/21 A3002 RMK AO2 T02840212
KMWO 151455Z AUTO 20003KT 7SM CLR 28/21 A3003 RMK AO2 T02760209
KMWO 151435Z AUTO 20003KT 7SM HZ CLR 27/22 A3004 RMK AO2 T02690218
KMWO 151415Z AUTO 00000KT 7SM CLR 25/22 A3004 RMK AO2 T02540217
KMWO 151355Z AUTO 00000KT 7SM CLR 25/21 A3004 RMK AO2 T02480213
KMWO 151335Z AUTO 00000KT 7SM CLR 25/21 A3005 RMK AO2 T02450214
KMWO 151315Z AUTO 00000KT 7SM SCT090 BKN120 24/22 A3006 RMK AO2 T02390219
KMWO 151255Z AUTO 00000KT 7SM CLR 24/22 A3006 RMK AO2 T02380218
KMWO 151235Z AUTO 03003KT 5SM -RA BR CLR 23/22 A3006 RMK AO2 T02330217
KMWO 151215Z AUTO 00000KT 5SM BR SCT080 23/22 A3006 RMK AO2 T02300217
KMWO 151150Z AUTO 00000KT 5SM BR CLR 22/21 A3006 RMK AO2 T02230213 10231 20208
KMWO 151135Z AUTO 00000KT 5SM BR CLR 22/21 A3005 RMK AO2 T02210210
KMWO 151115Z AUTO 34003KT 5SM BR CLR 22/21 A3005 RMK AO2 T02190210
KMWO 151055Z AUTO 00000KT 5SM BR CLR 22/21 A3004 RMK AO2 T02170207
KMWO 151035Z AUTO 00000KT 5SM BR CLR 22/21 A3004 RMK AO2 T02160207
KMWO 151015Z AUTO 08004KT 7SM CLR 22/21 A3004 RMK AO2 T02160207
KMWO 150955Z AUTO 00000KT 7SM BR CLR 22/21 A3004 RMK AO2 T02150207
KMWO 150935Z AUTO 00000KT 7SM CLR 22/21 A3003 RMK AO2 T02170207
KMWO 150915Z AUTO 00000KT 7SM CLR 22/21 A3003 RMK AO2 T02160206
KMWO 150855Z AUTO 00000KT 7SM BR CLR 21/21 A3003 RMK AO2 T02140206
KMWO 150835Z AUTO 00000KT 7SM BR CLR 21/21 A3003 RMK AO2 T02130206
KMWO 150815Z AUTO 00000KT 7SM CLR 22/21 A3003 RMK AO2 T02160206
KMWO 150755Z AUTO 00000KT 7SM CLR 22/21 A3003 RMK AO2 T02170207
KMWO 150735Z AUTO 00000KT 7SM CLR 22/21 A3003 RMK AO2 T02180205
KMWO 150715Z AUTO 02003KT 7SM CLR 21/21 A3003 RMK AO2 T02150206
KMWO 150655Z AUTO 32003KT 10SM CLR 22/21 A3003 RMK AO2 T02200207
KMWO 150635Z AUTO 00000KT 10SM CLR 22/21 A3003 RMK AO2 T02250209
KMWO 150615Z AUTO 00000KT 10SM CLR 23/21 A3004 RMK AO2 T02300211
KMWO 150555Z AUTO 02004KT 10SM CLR 23/21 A3005 RMK AO2 T02280209 10294 20226
KMWO 150535Z AUTO 01003KT 10SM CLR 23/21 A3005 RMK AO2 T02310211
KMWO 150515Z AUTO 00000KT 10SM CLR 23/21 A3005 RMK AO2 T02260211
KMWO 150455Z AUTO 00000KT 10SM CLR 23/21 A3004 RMK AO2 T02280213
KMWO 150435Z AUTO 00000KT 10SM CLR 23/21 A3004 RMK AO2 T02310213
KMWO 150415Z AUTO 00000KT 10SM CLR 24/22 A3004 RMK AO2 T02350216
KMWO 150355Z AUTO 00000KT 10SM CLR 24/22 A3004 RMK AO2 T02400220
KMWO 150335Z AUTO 36003KT 10SM CLR 24/22 A3004 RMK AO2 T02450219
KMWO 150315Z AUTO 00000KT 10SM CLR 25/22 A3004 RMK AO2 T02480216
KMWO 150255Z AUTO 00000KT 10SM CLR 25/22 A3004 RMK AO2 T02470221
KMWO 150235Z AUTO 00000KT 10SM CLR 26/21 A3004 RMK AO2 T02600213
KMWO 150215Z AUTO 00000KT 10SM CLR 25/22 A3004 RMK AO2 T02530219
KMWO 150155Z AUTO 00000KT 10SM CLR 26/22 A3004 RMK AO2 T02620221
KMWO 150135Z AUTO 10003KT 7SM CLR 27/22 A3003 RMK AO2 T02660219
KMWO 150115Z AUTO 34006KT 10SM CLR 27/22 A3003 RMK AO2 T02680216
KMWO 150055Z AUTO 33005KT 10SM CLR 27/22 A3002 RMK AO2 T02750215
KMWO 150035Z AUTO 35004KT 10SM CLR 28/22 A3001 RMK AO2 T02790217
KMWO 150015Z AUTO 00000KT 10SM CLR 29/21 A3001 RMK AO2 T02900213
KMWO 142355Z AUTO 04003KT 10SM CLR 29/21 A3000 RMK AO2 T02940213 10342 20292 403420169
KMWO 142335Z AUTO 35003KT 10SM CLR 30/21 A3000 RMK AO2 T02970210
KMWO 142315Z AUTO 34004KT 10SM CLR 30/21 A3000 RMK AO2 T02960211
KMWO 142255Z AUTO 05003KT 10SM CLR 31/19 A3000 RMK AO2 T03140194
KMWO 142235Z AUTO 05003KT 10SM CLR 32/20 A3002 RMK AO2 T03230197
KMWO 142215Z AUTO 05005KT 10SM CLR 32/20 A3003 RMK AO2 T03220196
KMWO 142155Z AUTO 36003KT 10SM CLR 33/20 A3004 RMK AO2 T03260196
KMWO 142135Z AUTO 32003KT 10SM CLR 33/19 A3005 RMK AO2 T03270194
KMWO 142115Z AUTO 28004KT 10SM CLR 33/18 A3005 RMK AO2 T03310184
KMWO 142055Z AUTO 04003KT 10SM CLR 33/18 A3005 RMK AO2 T03280184
KMWO 142035Z AUTO 35005KT 10SM CLR 33/19 A3006 RMK AO2 T03280190
KMWO 142015Z AUTO 26003KT 10SM CLR 32/18 A3006 RMK AO2 T03220177
KMWO 141955Z AUTO 31004KT 10SM CLR 32/18 A3007 RMK AO2 T03210177
KMWO 141935Z AUTO 29007KT 10SM CLR 32/18 A3008 RMK AO2 T03240180
KMWO 141915Z AUTO 26007KT 200V270 10SM CLR 34/19 A3008 RMK AO2 T03370187
KMWO 141855Z AUTO 00000KT 10SM CLR 33/18 A3009 RMK AO2 T03260182
KMWO 141835Z AUTO 31003KT 10SM CLR 33/18 A3009 RMK AO2 T03250181
KMWO 141815Z AUTO 22007KT 10SM SCT050 32/18 A3010 RMK AO2 T03240179
KMWO 141755Z AUTO 34004KT 10SM CLR 32/19 A3011 RMK AO2 T03180187 10322 20195
KMWO 141735Z AUTO 31004KT 10SM SCT050 31/19 A3011 RMK AO2 T03080190
KMWO 141715Z AUTO 29004KT 10SM BKN050 BKN070 31/19 A3012 RMK AO2 T03140188
KMWO 141655Z AUTO 22006KT 10SM CLR 31/18 A3012 RMK AO2 T03140184
KMWO 141635Z AUTO 27005KT 10SM SCT047 31/18 A3012 RMK AO2 T03120185
KMWO 141615Z AUTO 19005KT 10SM CLR 31/19 A3012 RMK AO2 T03080190
KMWO 141555Z AUTO 23006KT 10SM CLR 30/20 A3011 RMK AO2 T03020197
KMWO 141535Z AUTO 20004KT 10SM CLR 30/20 A3011 RMK AO2 T02960200
KMWO 141515Z AUTO 22003KT 10SM CLR 29/20 A3011 RMK AO2 T02930198
KMWO 141455Z AUTO 19005KT 10SM CLR 29/21 A3011 RMK AO2 T02860205
KMWO 141435Z AUTO 22003KT 10SM CLR 28/20 A3011 RMK AO2 T02770204
KMWO 141415Z AUTO 00000KT 10SM CLR 27/20 A3012 RMK AO2 T02670201
KMWO 141355Z AUTO 21003KT 10SM CLR 26/19 A3012 RMK AO2 T02610194
KMWO 141335Z AUTO 00000KT 10SM CLR 25/19 A3012 RMK AO2 T02460192
KMWO 141315Z AUTO 00000KT 10SM CLR 24/19 A3011 RMK AO2 T02370193
KMWO 141255Z AUTO 00000KT 10SM CLR 23/19 A3011 RMK AO2 T02300194
KMWO 141235Z AUTO 00000KT 10SM CLR 22/19 A3011 RMK AO2 T02200194
KMWO 141215Z AUTO 00000KT 7SM CLR 21/19 A3012 RMK AO2 T02060188
KMWO 141155Z AUTO 00000KT 7SM CLR 19/18 A3011 RMK AO2 T01930181 10195 20169
KMWO 141135Z AUTO 00000KT 7SM CLR 19/18 A3011 RMK AO2 T01870177
KMWO 141115Z AUTO 35003KT 7SM BR CLR 18/17 A3011 RMK AO2 T01780171